Fairfield Terrace, South Carolina
Current Conditions -  °F | °C
As of 8:53 PM on Tuesday 25 Nov 2014 (Local Time) from KCUB Reporting Station
Haze Haze  
Wind Chill: 58°   Ceiling: 9500
Heat Index: 58°   Visibility: 5mi
Dew Point: 55°   Wind: 0mph
Humidity: 90%   Direction: NA
Pressure: 30.04"   Gusts: NA
Location:  34.1179°N, 81.0612°W
Report Text: KCUB 260153Z AUTO 00000KT 5SM BR FEW009 OVC095 14/13 A3004 RMK AO2 RAE00B40E53 SLP170 P0000 T01440128
Loading
Personal Weather Stations






























Interactive Weather Map New forecast layout! Learn more

10-Day Weather Forecast

Advertisements
Track Severe Weather on mobile